sensor_id;sensor_type;location;lat;lon;timestamp;pressure;altitude;pressure_sealevel;temperature;humidity
62122;BME280;48108;47.532;19.084;2024-02-26T04:48:51;69456.72;;;8.40;100.00
62122;BME280;48108;47.532;19.084;2024-02-26T04:51:55;69464.72;;;8.52;100.00
62122;BME280;48108;47.532;19.084;2024-02-26T04:54:58;69460.09;;;8.48;100.00
62122;BME280;48108;47.532;19.084;2024-02-26T04:58:02;69457.19;;;8.46;100.00
62122;BME280;48108;47.532;19.084;2024-02-26T05:01:05;69462.28;;;8.43;100.00
62122;BME280;48108;47.532;19.084;2024-02-26T05:04:08;69457.78;;;8.46;100.00
62122;BME280;48108;47.532;19.084;2024-02-26T05:07:11;69463.66;;;8.47;100.00
62122;BME280;48108;47.532;19.084;2024-02-26T05:10:15;69448.47;;;8.38;100.00
62122;BME280;48108;47.532;19.084;2024-02-26T05:13:18;69439.28;;;8.25;100.00
62122;BME280;48108;47.532;19.084;2024-02-26T05:16:20;69438.13;;;8.24;100.00
62122;BME280;48108;47.532;19.084;2024-02-26T05:19:27;69426.41;;;8.18;100.00
62122;BME280;48108;47.532;19.084;2024-02-26T05:22:30;69425.84;;;8.18;100.00
62122;BME280;48108;47.532;19.084;2024-02-26T05:25:33;69427.94;;;8.17;100.00
62122;BME280;48108;47.532;19.084;2024-02-26T05:28:36;69433.38;;;8.25;100.00
62122;BME280;48108;47.532;19.084;2024-02-26T05:31:42;69435.38;;;8.29;100.00
62122;BME280;48108;47.532;19.084;2024-02-26T05:34:45;69437.22;;;8.26;100.00
62122;BME280;48108;47.532;19.084;2024-02-26T05:37:48;69448.66;;;8.29;100.00
62122;BME280;48108;47.532;19.084;2024-02-26T05:40:51;69440.69;;;8.29;100.00
62122;BME280;48108;47.532;19.084;2024-02-26T05:43:55;69445.06;;;8.30;100.00
62122;BME280;48108;47.532;19.084;2024-02-26T05:46:58;69449.97;;;8.37;100.00
62122;BME280;48108;47.532;19.084;2024-02-26T05:50:01;69449.63;;;8.39;100.00
62122;BME280;48108;47.532;19.084;2024-02-26T05:53:04;69460.19;;;8.44;100.00
62122;BME280;48108;47.532;19.084;2024-02-26T05:56:07;69461.91;;;8.45;100.00
62122;BME280;48108;47.532;19.084;2024-02-26T05:59:10;69466.34;;;8.47;100.00
62122;BME280;48108;47.532;19.084;2024-02-26T06:02:13;69463.91;;;8.49;100.00
62122;BME280;48108;47.532;19.084;2024-02-26T06:05:16;69469.13;;;8.54;100.00
62122;BME280;48108;47.532;19.084;2024-02-26T06:08:19;69466.25;;;8.51;100.00
62122;BME280;48108;47.532;19.084;2024-02-26T06:11:22;69470.88;;;8.55;100.00
62122;BME280;48108;47.532;19.084;2024-02-26T06:14:25;69476.31;;;8.62;100.00
62122;BME280;48108;47.532;19.084;2024-02-26T06:17:30;69496.75;;;8.76;100.00
62122;BME280;48108;47.532;19.084;2024-02-26T06:20:33;69500.22;;;8.79;100.00
62122;BME280;48108;47.532;19.084;2024-02-26T06:23:37;69555.84;;;8.81;100.00
62122;BME280;48108;47.532;19.084;2024-02-26T06:26:42;69503.63;;;8.87;100.00
62122;BME280;48108;47.532;19.084;2024-02-26T06:29:45;69503.38;;;8.84;100.00
62122;BME280;48108;47.532;19.084;2024-02-26T06:32:48;69495.47;;;8.79;100.00
62122;BME280;48108;47.532;19.084;2024-02-26T06:35:51;69510.91;;;8.91;100.00
62122;BME280;48108;47.532;19.084;2024-02-26T06:38:53;69514.63;;;8.96;100.00
62122;BME280;48108;47.532;19.084;2024-02-26T06:41:57;69515.22;;;8.97;100.00
62122;BME280;48108;47.532;19.084;2024-02-26T06:45:04;69531.22;;;9.08;100.00
62122;BME280;48108;47.532;19.084;2024-02-26T06:48:07;69539.94;;;9.16;100.00
62122;BME280;48108;47.532;19.084;2024-02-26T06:51:10;69541.09;;;9.17;100.00
62122;BME280;48108;47.532;19.084;2024-02-26T06:54:13;69555.03;;;9.29;100.00
62122;BME280;48108;47.532;19.084;2024-02-26T06:57:15;69555.03;;;9.29;100.00
62122;BME280;48108;47.532;19.084;2024-02-26T07:00:19;69563.41;;;9.39;100.00
62122;BME280;48108;47.532;19.084;2024-02-26T07:03:22;69566.66;;;9.40;100.00
62122;BME280;48108;47.532;19.084;2024-02-26T07:06:29;69570.72;;;9.43;100.00
62122;BME280;48108;47.532;19.084;2024-02-26T07:09:32;69589.50;;;9.62;100.00
62122;BME280;48108;47.532;19.084;2024-02-26T07:12:35;69607.28;;;9.75;100.00
62122;BME280;48108;47.532;19.084;2024-02-26T07:15:38;69615.41;;;9.83;100.00
62122;BME280;48108;47.532;19.084;2024-02-26T07:18:41;69633.78;;;9.96;100.00
62122;BME280;48108;47.532;19.084;2024-02-26T07:21:45;69631.69;;;9.97;100.00
62122;BME280;48108;47.532;19.084;2024-02-26T07:24:48;69624.47;;;9.88;100.00
62122;BME280;48108;47.532;19.084;2024-02-26T07:27:54;69645.75;;;10.05;100.00
62122;BME280;48108;47.532;19.084;2024-02-26T07:30:57;69648.75;;;10.14;100.00
62122;BME280;48108;47.532;19.084;2024-02-26T07:33:59;69688.66;;;10.47;100.00
62122;BME280;48108;47.532;19.084;2024-02-26T07:37:03;69730.84;;;10.82;100.00
62122;BME280;48108;47.532;19.084;2024-02-26T07:40:06;69784.81;;;11.34;100.00
62122;BME280;48108;47.532;19.084;2024-02-26T07:43:10;69822.97;;;11.65;100.00
62122;BME280;48108;47.532;19.084;2024-02-26T07:46:13;69784.00;;;11.31;100.00
62122;BME280;48108;47.532;19.084;2024-02-26T07:49:16;69782.84;;;11.30;100.00
62122;BME280;48108;47.532;19.084;2024-02-26T07:52:19;69799.13;;;11.44;100.00
62122;BME280;48108;47.532;19.084;2024-02-26T07:55:22;69815.63;;;11.61;100.00
62122;BME280;48108;47.532;19.084;2024-02-26T07:58:25;69809.25;;;11.55;100.00
62122;BME280;48108;47.532;19.084;2024-02-26T08:01:28;69821.81;;;11.64;100.00
62122;BME280;48108;47.532;19.084;2024-02-26T08:04:31;69838.22;;;11.74;100.00
62122;BME280;48108;47.532;19.084;2024-02-26T08:07:34;69851.47;;;11.90;100.00
62122;BME280;48108;47.532;19.084;2024-02-26T08:10:37;69847.75;;;11.85;100.00
62122;BME280;48108;47.532;19.084;2024-02-26T08:13:39;69848.22;;;11.90;100.00
62122;BME280;48108;47.532;19.084;2024-02-26T08:16:42;69857.88;;;11.96;100.00
62122;BME280;48108;47.532;19.084;2024-02-26T08:19:45;69889.06;;;11.74;100.00
62122;BME280;48108;47.532;19.084;2024-02-26T08:22:48;69854.53;;;11.88;100.00
62122;BME280;48108;47.532;19.084;2024-02-26T08:25:50;69870.47;;;12.05;100.00
62122;BME280;48108;47.532;19.084;2024-02-26T08:28:53;69890.81;;;12.22;100.00
62122;BME280;48108;47.532;19.084;2024-02-26T08:31:58;69894.19;;;12.30;100.00
62122;BME280;48108;47.532;19.084;2024-02-26T08:35:02;69907.72;;;12.37;100.00
62122;BME280;48108;47.532;19.084;2024-02-26T08:38:05;69893.63;;;12.30;100.00
62122;BME280;48108;47.532;19.084;2024-02-26T08:41:08;69884.88;;;12.22;100.00
62122;BME280;48108;47.532;19.084;2024-02-26T08:44:11;69879.19;;;12.12;100.00
62122;BME280;48108;47.532;19.084;2024-02-26T08:47:14;69899.31;;;12.28;100.00
62122;BME280;48108;47.532;19.084;2024-02-26T08:50:17;69923.66;;;12.54;100.00
62122;BME280;48108;47.532;19.084;2024-02-26T08:53:20;69939.38;;;12.67;100.00
62122;BME280;48108;47.532;19.084;2024-02-26T08:56:33;69929.47;;;12.59;100.00
62122;BME280;48108;47.532;19.084;2024-02-26T08:59:36;69918.78;;;12.47;100.00
62122;BME280;48108;47.532;19.084;2024-02-26T09:02:39;69888.75;;;12.23;100.00
62122;BME280;48108;47.532;19.084;2024-02-26T09:05:42;69897.22;;;12.28;100.00
62122;BME280;48108;47.532;19.084;2024-02-26T09:08:45;69894.69;;;12.23;100.00
62122;BME280;48108;47.532;19.084;2024-02-26T09:11:48;69873.25;;;12.12;100.00
62122;BME280;48108;47.532;19.084;2024-02-26T09:14:54;69903.63;;;12.34;100.00
62122;BME280;48108;47.532;19.084;2024-02-26T09:17:59;69893.72;;;12.25;100.00
62122;BME280;48108;47.532;19.084;2024-02-26T09:21:05;69902.13;;;12.35;100.00
62122;BME280;48108;47.532;19.084;2024-02-26T09:24:11;69925.19;;;12.53;100.00
62122;BME280;48108;47.532;19.084;2024-02-26T09:27:14;69908.53;;;12.40;100.00
62122;BME280;48108;47.532;19.084;2024-02-26T09:30:17;69893.50;;;12.22;100.00
62122;BME280;48108;47.532;19.084;2024-02-26T09:33:21;69922.50;;;12.53;100.00
62122;BME280;48108;47.532;19.084;2024-02-26T09:36:25;69936.47;;;12.65;100.00
62122;BME280;48108;47.532;19.084;2024-02-26T09:39:27;69951.63;;;12.78;100.00
62122;BME280;48108;47.532;19.084;2024-02-26T09:42:31;69968.50;;;12.93;100.00
62122;BME280;48108;47.532;19.084;2024-02-26T09:45:35;69961.28;;;12.84;100.00
62122;BME280;48108;47.532;19.084;2024-02-26T09:48:39;69956.84;;;12.83;100.00
62122;BME280;48108;47.532;19.084;2024-02-26T09:51:43;69996.78;;;13.15;100.00
62122;BME280;48108;47.532;19.084;2024-02-26T09:54:47;70011.41;;;13.28;100.00
62122;BME280;48108;47.532;19.084;2024-02-26T09:57:51;69987.47;;;13.07;100.00
62122;BME280;48108;47.532;19.084;2024-02-26T10:00:56;70004.97;;;13.23;100.00
62122;BME280;48108;47.532;19.084;2024-02-26T10:04:04;70023.84;;;13.42;100.00
62122;BME280;48108;47.532;19.084;2024-02-26T10:07:12;69994.69;;;13.16;100.00
62122;BME280;48108;47.532;19.084;2024-02-26T10:10:16;69999.38;;;13.20;100.00
62122;BME280;48108;47.532;19.084;2024-02-26T10:13:20;69977.22;;;13.01;100.00
62122;BME280;48108;47.532;19.084;2024-02-26T10:16:26;69989.22;;;13.09;100.00
62122;BME280;48108;47.532;19.084;2024-02-26T10:19:30;69994.69;;;13.16;100.00
62122;BME280;48108;47.532;19.084;2024-02-26T10:22:36;70013.94;;;13.33;100.00
62122;BME280;48108;47.532;19.084;2024-02-26T10:25:52;70003.44;;;13.24;100.00
62122;BME280;48108;47.532;19.084;2024-02-26T10:28:59;70015.47;;;13.32;100.00
62122;BME280;48108;47.532;19.084;2024-02-26T10:32:03;70015.13;;;13.34;100.00
62122;BME280;48108;47.532;19.084;2024-02-26T10:35:09;70030.25;;;13.47;100.00
62122;BME280;48108;47.532;19.084;2024-02-26T10:38:12;70069.06;;;13.79;100.00
62122;BME280;48108;47.532;19.084;2024-02-26T10:41:17;70068.50;;;13.78;100.00
62122;BME280;48108;47.532;19.084;2024-02-26T10:44:20;70134.00;;;14.38;100.00
62122;BME280;48108;47.532;19.084;2024-02-26T10:47:23;70202.03;;;14.95;100.00
62122;BME280;48108;47.532;19.084;2024-02-26T10:50:26;70286.66;;;15.70;100.00
62122;BME280;48108;47.532;19.084;2024-02-26T10:53:29;70249.28;;;15.37;100.00
62122;BME280;48108;47.532;19.084;2024-02-26T10:56:34;70275.56;;;15.60;100.00
62122;BME280;48108;47.532;19.084;2024-02-26T10:59:42;70304.97;;;15.88;100.00
62122;BME280;48108;47.532;19.084;2024-02-26T11:02:45;70318.41;;;16.00;100.00
62122;BME280;48108;47.532;19.084;2024-02-26T11:05:52;70369.94;;;16.40;100.00
62122;BME280;48108;47.532;19.084;2024-02-26T11:08:55;70358.72;;;16.35;100.00
62122;BME280;48108;47.532;19.084;2024-02-26T11:11:59;70350.28;;;16.25;100.00
62122;BME280;48108;47.532;19.084;2024-02-26T11:15:03;70325.78;;;16.04;100.00
62122;BME280;48108;47.532;19.084;2024-02-26T11:18:07;70354.03;;;16.31;100.00
62122;BME280;48108;47.532;19.084;2024-02-26T11:21:13;70366.88;;;16.42;100.00
62122;BME280;48108;47.532;19.084;2024-02-26T11:24:17;70394.31;;;16.66;100.00
62122;BME280;48108;47.532;19.084;2024-02-26T11:27:30;70433.50;;;17.00;100.00
62122;BME280;48108;47.532;19.084;2024-02-26T11:30:38;70486.81;;;17.42;100.00
62122;BME280;48108;47.532;19.084;2024-02-26T11:33:43;70472.44;;;17.32;100.00
62122;BME280;48108;47.532;19.084;2024-02-26T11:36:46;70506.31;;;17.62;100.00
62122;BME280;48108;47.532;19.084;2024-02-26T11:39:51;70535.94;;;17.85;100.00
62122;BME280;48108;47.532;19.084;2024-02-26T11:42:55;70542.94;;;17.92;100.00
62122;BME280;48108;47.532;19.084;2024-02-26T11:45:58;70487.25;;;17.48;100.00
62122;BME280;48108;47.532;19.084;2024-02-26T11:49:29;70515.69;;;17.70;100.00
62122;BME280;48108;47.532;19.084;2024-02-26T11:52:26;70492.53;;;17.52;100.00
62122;BME280;48108;47.532;19.084;2024-02-26T11:55:32;70581.56;;;18.25;100.00
62122;BME280;48108;47.532;19.084;2024-02-26T11:58:35;70590.53;;;18.35;95.05
62122;BME280;48108;47.532;19.084;2024-02-26T12:04:44;70448.25;;;17.09;100.00
62122;BME280;48108;47.532;19.084;2024-02-26T12:07:48;70360.44;;;16.37;100.00
62122;BME280;48108;47.532;19.084;2024-02-26T12:10:54;70347.59;;;16.25;100.00
62122;BME280;48108;47.532;19.084;2024-02-26T12:13:58;70360.22;;;16.34;100.00
62122;BME280;48108;47.532;19.084;2024-02-26T12:17:01;70388.13;;;16.63;100.00
62122;BME280;48108;47.532;19.084;2024-02-26T12:20:09;70458.97;;;17.20;100.00
62122;BME280;48108;47.532;19.084;2024-02-26T12:23:16;70512.31;;;17.62;98.55
62122;BME280;48108;47.532;19.084;2024-02-26T12:26:22;70549.63;;;18.00;95.38
62122;BME280;48108;47.532;19.084;2024-02-26T12:29:25;70583.53;;;18.29;91.98
62122;BME280;48108;47.532;19.084;2024-02-26T12:32:27;70509.81;;;17.65;95.74
62122;BME280;48108;47.532;19.084;2024-02-26T12:35:30;70612.78;;;18.55;88.81
62122;BME280;48108;47.532;19.084;2024-02-26T12:38:34;70644.38;;;18.83;84.24
62122;BME280;48108;47.532;19.084;2024-02-26T12:41:40;70588.34;;;18.29;89.51
62122;BME280;48108;47.532;19.084;2024-02-26T12:44:45;70548.00;;;17.94;88.35
62122;BME280;48108;47.532;19.084;2024-02-26T12:47:48;70438.31;;;17.00;92.49
62122;BME280;48108;47.532;19.084;2024-02-26T12:50:54;70433.50;;;17.00;93.95
62122;BME280;48108;47.532;19.084;2024-02-26T12:53:58;70396.56;;;16.61;96.07
62122;BME280;48108;47.532;19.084;2024-02-26T12:57:01;70426.84;;;16.92;97.52
62122;BME280;48108;47.532;19.084;2024-02-26T13:00:07;70440.84;;;17.05;96.39
62122;BME280;48108;47.532;19.084;2024-02-26T13:03:12;70447.06;;;17.08;93.30
62122;BME280;48108;47.532;19.084;2024-02-26T13:06:17;70519.31;;;17.68;92.21
62122;BME280;48108;47.532;19.084;2024-02-26T13:09:20;70577.31;;;18.26;87.93
62122;BME280;48108;47.532;19.084;2024-02-26T13:12:25;70567.50;;;18.13;84.47
62122;BME280;48108;47.532;19.084;2024-02-26T13:15:29;70557.56;;;18.04;85.61
62122;BME280;48108;47.532;19.084;2024-02-26T13:18:32;70496.97;;;17.54;86.53
62122;BME280;48108;47.532;19.084;2024-02-26T13:21:35;70514.50;;;17.69;86.75
62122;BME280;48108;47.532;19.084;2024-02-26T13:24:39;70501.63;;;17.58;85.98
62122;BME280;48108;47.532;19.084;2024-02-26T13:27:41;70509.03;;;17.62;87.23
62122;BME280;48108;47.532;19.084;2024-02-26T13:31:03;70522.69;;;17.76;86.89
62122;BME280;48108;47.532;19.084;2024-02-26T13:34:07;70504.78;;;17.63;88.77
62122;BME280;48108;47.532;19.084;2024-02-26T13:37:11;70539.09;;;17.90;88.86
62122;BME280;48108;47.532;19.084;2024-02-26T13:40:14;70595.59;;;18.38;81.44
62122;BME280;48108;47.532;19.084;2024-02-26T13:43:17;70614.06;;;18.51;83.41
62122;BME280;48108;47.532;19.084;2024-02-26T13:46:20;70608.66;;;18.51;84.24
62122;BME280;48108;47.532;19.084;2024-02-26T13:49:23;70582.50;;;18.24;87.03
62122;BME280;48108;47.532;19.084;2024-02-26T13:52:26;70600.03;;;18.39;85.79
62122;BME280;48108;47.532;19.084;2024-02-26T13:55:30;70529.38;;;17.84;82.91
62122;BME280;48108;47.532;19.084;2024-02-26T13:58:34;70435.84;;;17.03;87.84
62122;BME280;48108;47.532;19.084;2024-02-26T14:01:37;70422.75;;;16.89;87.55
62122;BME280;48108;47.532;19.084;2024-02-26T14:04:40;70398.56;;;16.65;90.35
62122;BME280;48108;47.532;19.084;2024-02-26T14:07:42;70404.59;;;16.73;91.19
62122;BME280;48108;47.532;19.084;2024-02-26T14:10:46;70411.44;;;16.76;89.19
62122;BME280;48108;47.532;19.084;2024-02-26T14:13:48;70389.78;;;16.58;90.27
62122;BME280;48108;47.532;19.084;2024-02-26T14:16:51;70355.34;;;16.27;92.00
62122;BME280;48108;47.532;19.084;2024-02-26T14:19:54;70341.69;;;16.13;93.74
62122;BME280;48108;47.532;19.084;2024-02-26T14:22:57;70315.50;;;15.97;97.01
62122;BME280;48108;47.532;19.084;2024-02-26T14:26:00;70326.59;;;16.07;95.37
62122;BME280;48108;47.532;19.084;2024-02-26T14:29:03;70316.88;;;16.01;97.36
62122;BME280;48108;47.532;19.084;2024-02-26T14:32:06;70325.19;;;16.03;96.84
62122;BME280;48108;47.532;19.084;2024-02-26T14:35:09;70397.44;;;16.22;97.92
62122;BME280;48108;47.532;19.084;2024-02-26T14:38:18;70348.19;;;16.26;96.78
62122;BME280;48108;47.532;19.084;2024-02-26T14:41:21;70372.72;;;16.47;96.11
62122;BME280;48108;47.532;19.084;2024-02-26T14:44:24;70359.41;;;16.31;96.12
62122;BME280;48108;47.532;19.084;2024-02-26T14:47:27;70327.91;;;16.03;100.00
62122;BME280;48108;47.532;19.084;2024-02-26T14:50:30;70305.56;;;15.89;99.65
62122;BME280;48108;47.532;19.084;2024-02-26T14:53:33;70291.34;;;15.74;100.00
62122;BME280;48108;47.532;19.084;2024-02-26T14:56:36;70259.22;;;15.46;100.00
62122;BME280;48108;47.532;19.084;2024-02-26T14:59:39;70264.25;;;15.48;100.00
62122;BME280;48108;47.532;19.084;2024-02-26T15:02:42;70238.66;;;15.32;100.00
62122;BME280;48108;47.532;19.084;2024-02-26T15:05:45;70234.91;;;15.27;100.00
62122;BME280;48108;47.532;19.084;2024-02-26T15:08:48;70215.69;;;15.10;100.00
62122;BME280;48108;47.532;19.084;2024-02-26T15:11:51;70204.97;;;14.98;100.00
62122;BME280;48108;47.532;19.084;2024-02-26T15:14:54;70206.13;;;14.99;100.00
62122;BME280;48108;47.532;19.084;2024-02-26T15:17:57;70176.38;;;14.73;100.00
62122;BME280;48108;47.532;19.084;2024-02-26T15:21:01;70172.28;;;14.69;100.00
62122;BME280;48108;47.532;19.084;2024-02-26T15:24:06;70150.09;;;14.50;100.00
62122;BME280;48108;47.532;19.084;2024-02-26T15:27:10;70152.47;;;14.52;100.00
62122;BME280;48108;47.532;19.084;2024-02-26T15:30:14;70148.59;;;14.51;100.00
62122;BME280;48108;47.532;19.084;2024-02-26T15:33:16;70143.09;;;14.44;100.00
62122;BME280;48108;47.532;19.084;2024-02-26T15:36:21;70124.22;;;14.25;100.00
62122;BME280;48108;47.532;19.084;2024-02-26T15:39:24;70107.91;;;14.11;100.00
62122;BME280;48108;47.532;19.084;2024-02-26T15:42:27;70106.94;;;14.12;100.00
62122;BME280;48108;47.532;19.084;2024-02-26T15:45:30;70092.63;;;14.02;100.00
62122;BME280;48108;47.532;19.084;2024-02-26T15:48:38;70091.94;;;13.94;100.00
62122;BME280;48108;47.532;19.084;2024-02-26T15:51:41;70076.63;;;13.86;100.00
62122;BME280;48108;47.532;19.084;2024-02-26T15:54:44;70063.25;;;13.74;100.00
62122;BME280;48108;47.532;19.084;2024-02-26T15:57:47;70041.69;;;13.55;100.00
62122;BME280;48108;47.532;19.084;2024-02-26T16:00:50;70023.63;;;13.39;100.00
62122;BME280;48108;47.532;19.084;2024-02-26T16:03:53;70017.56;;;13.31;100.00
62122;BME280;48108;47.532;19.084;2024-02-26T16:07:02;70002.03;;;13.20;100.00
62122;BME280;48108;47.532;19.084;2024-02-26T16:10:11;70006.13;;;13.24;100.00
62122;BME280;48108;47.532;19.084;2024-02-26T16:13:15;69990.03;;;13.12;100.00
62122;BME280;48108;47.532;19.084;2024-02-26T16:16:25;69977.59;;;12.99;100.00
62122;BME280;48108;47.532;19.084;2024-02-26T16:19:31;69960.91;;;12.86;100.00
62122;BME280;48108;47.532;19.084;2024-02-26T16:22:34;69948.34;;;12.78;100.00
62122;BME280;48108;47.532;19.084;2024-02-26T16:25:38;69938.81;;;12.67;100.00
62122;BME280;48108;47.532;19.084;2024-02-26T16:28:41;69923.06;;;12.53;100.00
62122;BME280;48108;47.532;19.084;2024-02-26T16:31:44;69911.66;;;12.45;100.00
62122;BME280;48108;47.532;19.084;2024-02-26T16:34:49;69910.63;;;12.40;100.00
62122;BME280;48108;47.532;19.084;2024-02-26T16:37:52;69906.78;;;12.39;100.00
62122;BME280;48108;47.532;19.084;2024-02-26T16:40:55;69896.66;;;12.28;100.00
62122;BME280;48108;47.532;19.084;2024-02-26T16:43:58;69886.19;;;12.18;100.00
62122;BME280;48108;47.532;19.084;2024-02-26T16:47:02;69868.97;;;12.06;100.00
62122;BME280;48108;47.532;19.084;2024-02-26T16:50:06;69852.66;;;11.91;100.00
62122;BME280;48108;47.532;19.084;2024-02-26T16:53:10;69845.41;;;11.83;100.00
62122;BME280;48108;47.532;19.084;2024-02-26T16:56:13;69836.09;;;11.74;100.00
62122;BME280;48108;47.532;19.084;2024-02-26T16:59:16;69823.88;;;11.64;100.00
